Time;durP1;ratioP1;P1;durP2;ratioP2;P2;SDS_P1;SDS_P2;PMS_P1;PMS_P2;Temp;Humidity;BMP_temperature;BMP_pressure;BME280_temperature;BME280_humidity;BME280_pressure;Samples;Min_cycle;Max_cycle;Signal;HPM_P1;HPM_P2
2023/06/01 00:03:12;;;;;;;1.05;0.90;;;;;;;14.30;100.00;98713.34;15313929;19;20006;-79
2023/06/01 00:08:37;;;;;;;2.80;1.00;;;;;;;14.20;100.00;98709.16;15313592;19;20019;-80
2023/06/01 00:14:04;;;;;;;1.70;1.02;;;;;;;14.10;100.00;98712.13;15322676;19;20022;-79
2023/06/01 00:19:30;;;;;;;3.22;1.20;;;;;;;13.99;100.00;98705.22;15327273;19;20010;-79
2023/06/01 00:24:54;;;;;;;4.20;1.10;;;;;;;13.85;100.00;98707.63;15322192;19;20045;-80
2023/06/01 00:30:22;;;;;;;2.42;1.23;;;;;;;13.74;100.00;98708.03;15311940;19;20018;-78
2023/06/01 00:35:46;;;;;;;3.72;1.10;;;;;;;13.61;100.00;98703.16;15310389;19;20013;-79
2023/06/01 00:41:11;;;;;;;2.88;1.10;;;;;;;13.52;100.00;98702.34;15318539;19;20794;-80
2023/06/01 00:46:39;;;;;;;2.88;1.33;;;;;;;13.43;100.00;98711.50;15326718;19;20058;-78
2023/06/01 00:52:05;;;;;;;2.97;1.10;;;;;;;13.33;100.00;98710.81;15319919;19;20022;-80
2023/06/01 00:57:31;;;;;;;3.00;1.20;;;;;;;13.20;100.00;98698.66;15312181;19;20028;-81
2023/06/01 01:03:07;;;;;;;3.60;1.30;;;;;;;13.09;100.00;98696.31;15332809;19;20019;-80
2023/06/01 01:08:41;;;;;;;3.42;1.20;;;;;;;12.99;100.00;98692.94;15324965;19;20029;-79
2023/06/01 01:14:36;;;;;;;2.30;1.17;;;;;;;12.90;100.00;98684.81;15305258;19;20081;-80
2023/06/01 01:20:10;;;;;;;3.05;1.20;;;;;;;12.79;100.00;98693.25;15314341;19;20257;-79
2023/06/01 01:25:58;;;;;;;2.10;1.15;;;;;;;12.69;100.00;98703.41;15359393;19;20009;-81
2023/06/01 01:31:26;;;;;;;2.92;1.30;;;;;;;12.58;100.00;98694.63;15301719;19;20018;-80
2023/06/01 01:36:52;;;;;;;1.85;1.20;;;;;;;12.52;100.00;98699.84;15303660;19;20022;-80
2023/06/01 01:42:17;;;;;;;4.00;1.55;;;;;;;12.43;100.00;98698.97;15301665;19;20017;-82
2023/06/01 01:47:52;;;;;;;4.68;1.30;;;;;;;12.31;100.00;98693.91;15295023;19;20015;-84
2023/06/01 01:53:19;;;;;;;3.25;1.33;;;;;;;12.17;100.00;98698.09;15299859;19;20014;-85
2023/06/01 01:58:44;;;;;;;3.70;1.40;;;;;;;12.11;100.00;98685.22;15298507;19;20018;-84
2023/06/01 02:04:18;;;;;;;2.20;1.30;;;;;;;12.04;100.00;98675.28;15299006;19;20661;-85
2023/06/01 02:09:45;;;;;;;3.35;1.50;;;;;;;11.95;100.00;98677.91;15304259;19;20014;-85
2023/06/01 02:15:36;;;;;;;3.70;1.30;;;;;;;11.89;100.00;98681.28;15320983;19;20029;-86
2023/06/01 02:21:24;;;;;;;1.98;1.25;;;;;;;11.80;100.00;98682.25;15300972;19;20007;-87
2023/06/01 02:26:53;;;;;;;1.92;1.30;;;;;;;11.76;100.00;98680.88;15306041;19;20030;-86
2023/06/01 02:32:19;;;;;;;3.45;1.48;;;;;;;11.72;100.00;98680.38;15304137;19;20011;-86
2023/06/01 02:37:52;;;;;;;2.00;1.40;;;;;;;11.65;100.00;98674.75;15308222;19;20006;-86
2023/06/01 02:43:17;;;;;;;2.30;1.25;;;;;;;11.60;100.00;98678.97;15308907;19;20015;-86
2023/06/01 02:48:41;;;;;;;1.65;1.02;;;;;;;11.49;100.00;98675.53;15299906;19;20011;-78
2023/06/01 02:54:08;;;;;;;2.20;1.40;;;;;;;11.39;100.00;98670.25;15297898;19;20015;-82
2023/06/01 02:59:34;;;;;;;3.00;1.33;;;;;;;11.29;100.00;98680.31;15308239;19;20014;-81
2023/06/01 03:05:06;;;;;;;3.53;1.35;;;;;;;11.22;100.00;98663.09;15302035;19;20031;-80
2023/06/01 03:10:55;;;;;;;2.25;1.20;;;;;;;11.11;100.00;98664.19;15318878;19;20049;-81
2023/06/01 03:16:23;;;;;;;2.08;1.40;;;;;;;11.04;100.00;98668.53;15303225;19;20017;-81
2023/06/01 03:21:59;;;;;;;1.92;1.20;;;;;;;10.97;100.00;98665.63;15312872;19;20009;-86
2023/06/01 03:27:27;;;;;;;3.30;1.30;;;;;;;10.91;100.00;98671.63;15337607;19;20021;-88
2023/06/01 03:32:52;;;;;;;4.72;1.30;;;;;;;10.86;100.00;98673.97;15356553;19;20047;-81
2023/06/01 03:38:16;;;;;;;3.28;1.50;;;;;;;10.75;100.00;98683.13;15362732;19;20022;-82
2023/06/01 03:43:43;;;;;;;4.40;1.38;;;;;;;10.67;100.00;98681.22;15311867;19;20018;-81
2023/06/01 03:49:08;;;;;;;4.07;1.40;;;;;;;10.60;100.00;98680.16;15316632;19;20014;-81
2023/06/01 03:54:33;;;;;;;3.47;1.42;;;;;;;10.58;100.00;98679.47;15313207;19;20015;-80
2023/06/01 04:00:23;;;;;;;3.13;1.48;;;;;;;10.57;100.00;98686.72;15320520;19;20419;-80
2023/06/01 04:05:49;;;;;;;4.03;1.40;;;;;;;10.61;100.00;98684.53;15323101;19;20013;-81
2023/06/01 04:11:14;;;;;;;5.40;1.40;;;;;;;10.63;100.00;98683.38;15317106;19;20015;-79
2023/06/01 04:16:41;;;;;;;2.30;1.30;;;;;;;10.70;100.00;98682.78;15316966;19;20493;-80
2023/06/01 04:22:06;;;;;;;3.60;1.45;;;;;;;10.74;100.00;98682.31;15318473;19;20388;-82
2023/06/01 04:27:31;;;;;;;2.15;1.20;;;;;;;10.80;100.00;98675.44;15312158;19;20094;-82
2023/06/01 04:32:59;;;;;;;2.75;1.33;;;;;;;10.86;100.00;98676.66;15323299;19;20015;-81
2023/06/01 04:38:28;;;;;;;2.63;1.45;;;;;;;10.90;100.00;98675.31;15321185;19;20051;-79
2023/06/01 04:43:52;;;;;;;2.10;1.40;;;;;;;10.96;100.00;98685.50;15329561;19;20019;-81
2023/06/01 04:55:04;;;;;;;2.47;1.52;;;;;;;11.12;100.00;98683.91;15365729;19;19998;-84
2023/06/01 05:00:30;;;;;;;4.47;1.50;;;;;;;11.17;100.00;98681.59;15359353;19;20010;-81
2023/06/01 05:05:56;;;;;;;1.75;1.30;;;;;;;11.24;100.00;98671.84;15312763;19;20090;-82
2023/06/01 05:11:28;;;;;;;5.38;1.67;;;;;;;11.32;100.00;98671.91;15298987;19;20034;-85
2023/06/01 05:16:52;;;;;;;3.17;1.50;;;;;;;11.42;100.00;98660.97;15304957;19;20019;-81
2023/06/01 05:22:16;;;;;;;2.30;1.50;;;;;;;11.52;100.00;98659.03;15298599;19;20673;-81
2023/06/01 05:27:43;;;;;;;3.55;1.80;;;;;;;11.64;100.00;98656.03;15301663;19;20014;-83
2023/06/01 05:33:11;;;;;;;3.30;1.42;;;;;;;11.76;100.00;98664.69;15296987;19;20015;-83
2023/06/01 05:38:38;;;;;;;6.10;1.95;;;;;;;11.88;100.00;98652.56;15313656;19;20015;-79
2023/06/01 05:44:06;;;;;;;5.22;1.70;;;;;;;12.00;100.00;98654.00;15317532;19;20019;-80
2023/06/01 05:49:32;;;;;;;3.78;1.50;;;;;;;12.15;100.00;98658.75;15321769;19;20028;-77
2023/06/01 05:54:58;;;;;;;2.72;1.40;;;;;;;12.29;100.00;98658.09;15337812;19;20054;-78
2023/06/01 06:00:27;;;;;;;3.92;1.27;;;;;;;12.47;100.00;98654.41;15317346;19;20041;-81
2023/06/01 06:06:02;;;;;;;2.30;1.40;;;;;;;12.64;100.00;98647.97;15316571;19;20018;-77
2023/06/01 06:11:27;;;;;;;4.15;1.40;;;;;;;12.87;100.00;98646.47;15311429;19;20010;-80
2023/06/01 06:16:54;;;;;;;4.53;1.50;;;;;;;13.08;100.00;98640.53;15304948;19;20024;-81
2023/06/01 06:22:24;;;;;;;4.28;1.20;;;;;;;13.35;100.00;98638.41;15308304;19;20011;-79
2023/06/01 06:27:49;;;;;;;2.65;1.30;;;;;;;13.58;100.00;98627.72;15312099;19;20014;-80
2023/06/01 06:33:17;;;;;;;3.10;1.25;;;;;;;13.82;100.00;98639.44;15307818;19;20015;-79
2023/06/01 06:38:44;;;;;;;2.15;1.17;;;;;;;14.06;100.00;98632.22;15307399;19;20014;-80
2023/06/01 06:44:10;;;;;;;2.17;1.38;;;;;;;14.31;100.00;98636.44;15300660;19;20390;-81
2023/06/01 06:49:38;;;;;;;2.15;1.13;;;;;;;14.57;100.00;98631.69;15310534;19;20022;-77
2023/06/01 06:55:05;;;;;;;2.45;1.10;;;;;;;14.85;100.00;98633.84;15302494;19;20054;-80
2023/06/01 07:00:31;;;;;;;2.85;1.10;;;;;;;15.08;100.00;98636.50;15307042;19;20031;-78
2023/06/01 07:06:08;;;;;;;2.15;1.13;;;;;;;15.30;100.00;98633.88;15317131;19;20082;-79
2023/06/01 07:11:39;;;;;;;4.13;1.10;;;;;;;15.54;100.00;98643.66;15323618;19;20046;-80
2023/06/01 07:17:05;;;;;;;4.40;1.20;;;;;;;15.69;100.00;98641.78;15318935;19;20564;-80
2023/06/01 07:22:32;;;;;;;3.42;1.42;;;;;;;15.83;100.00;98631.03;15321404;19;20622;-82
2023/06/01 07:28:00;;;;;;;3.25;1.33;;;;;;;15.99;100.00;98630.88;15319802;19;20010;-81
2023/06/01 07:33:28;;;;;;;2.80;1.08;;;;;;;16.17;100.00;98624.16;15319393;19;20489;-80
2023/06/01 07:38:57;;;;;;;2.83;1.10;;;;;;;16.34;100.00;98619.34;15325897;19;20875;-81
2023/06/01 07:44:23;;;;;;;3.70;1.20;;;;;;;16.54;100.00;98605.91;15296316;19;20018;-41
2023/06/01 07:49:47;;;;;;;3.30;1.20;;;;;;;16.73;100.00;98612.56;15287231;19;20007;-41
2023/06/01 07:55:15;;;;;;;3.92;1.10;;;;;;;16.96;100.00;98614.22;15293376;19;20485;-39
2023/06/01 08:00:39;;;;;;;3.10;1.20;;;;;;;17.16;100.00;98598.03;15292034;19;20042;-40
2023/06/01 08:06:07;;;;;;;2.15;1.10;;;;;;;17.43;100.00;98609.09;15285157;19;20482;-41
2023/06/01 08:11:35;;;;;;;3.60;1.20;;;;;;;17.62;100.00;98598.50;15284447;19;20014;-40
2023/06/01 08:17:01;;;;;;;3.83;1.25;;;;;;;17.80;100.00;98597.94;15291317;19;20025;-40
2023/06/01 08:22:27;;;;;;;1.95;0.90;;;;;;;17.95;100.00;98595.03;15279160;19;20483;-39
2023/06/01 08:27:55;;;;;;;4.05;1.00;;;;;;;18.13;100.00;98581.72;15283978;19;20089;-40
2023/06/01 08:33:19;;;;;;;1.42;0.95;;;;;;;18.37;100.00;98582.19;15283331;19;20024;-40
2023/06/01 08:38:45;;;;;;;4.13;0.90;;;;;;;18.48;100.00;98573.38;15285162;19;20483;-41
2023/06/01 08:44:14;;;;;;;2.72;1.10;;;;;;;18.60;100.00;98564.56;15281135;19;20018;-45
2023/06/01 08:49:39;;;;;;;2.05;1.05;;;;;;;18.78;100.00;98562.03;15286212;19;20017;-42
2023/06/01 08:55:03;;;;;;;3.25;1.10;;;;;;;18.97;100.00;98554.06;15288876;19;20057;-43
2023/06/01 09:00:34;;;;;;;2.92;1.05;;;;;;;19.13;100.00;98557.38;15287824;19;20021;-41
2023/06/01 09:05:58;;;;;;;1.98;0.98;;;;;;;19.23;100.00;98557.78;15280184;19;20545;-41
2023/06/01 09:11:23;;;;;;;2.30;1.02;;;;;;;19.39;100.00;98551.84;15283172;19;20019;-41
2023/06/01 09:16:50;;;;;;;4.90;1.00;;;;;;;19.63;100.00;98534.94;15278508;19;21005;-44
2023/06/01 09:22:16;;;;;;;6.32;1.00;;;;;;;19.78;100.00;98542.88;15280192;19;20041;-42
2023/06/01 09:27:52;;;;;;;5.18;1.00;;;;;;;20.01;100.00;98540.44;15277706;19;20029;-43
2023/06/01 09:33:20;;;;;;;3.70;0.95;;;;;;;20.37;100.00;98548.22;15280644;19;20042;-41
2023/06/01 09:38:45;;;;;;;3.80;1.00;;;;;;;20.50;100.00;98528.94;15280446;19;20235;-42
2023/06/01 09:44:10;;;;;;;2.42;0.90;;;;;;;20.63;87.10;98534.31;15277755;19;20036;-43
2023/06/01 09:49:45;;;;;;;4.18;1.00;;;;;;;20.63;94.58;98523.38;15277874;19;20018;-41
2023/06/01 09:55:12;;;;;;;2.63;0.90;;;;;;;20.72;88.85;98520.34;15286049;19;20015;-42
2023/06/01 10:00:36;;;;;;;2.75;0.80;;;;;;;20.87;87.76;98517.25;15280650;19;20042;-42
2023/06/01 10:06:06;;;;;;;2.78;0.90;;;;;;;21.12;79.57;98514.47;15272094;19;20015;-44
2023/06/01 10:11:30;;;;;;;2.55;0.90;;;;;;;21.24;81.01;98512.63;15281421;19;20500;-41
2023/06/01 10:16:56;;;;;;;2.45;0.90;;;;;;;21.44;82.87;98514.31;15280572;19;20021;-41
2023/06/01 10:22:23;;;;;;;4.32;0.93;;;;;;;21.48;86.27;98501.81;15269154;19;20023;-41
2023/06/01 10:27:57;;;;;;;3.97;1.00;;;;;;;21.65;86.52;98491.06;15275196;19;20757;-42
2023/06/01 10:33:22;;;;;;;4.90;1.05;;;;;;;21.71;87.63;98486.56;15277567;19;20015;-44
2023/06/01 10:39:26;;;;;;;2.30;0.98;;;;;;;21.82;83.11;98480.28;15279773;19;20025;-42
2023/06/01 10:44:59;;;;;;;2.17;0.90;;;;;;;21.97;81.44;98479.88;15296157;19;20464;-41
2023/06/01 10:50:24;;;;;;;3.28;0.95;;;;;;;22.11;74.69;98466.78;15292646;19;20360;-45
2023/06/01 10:55:51;;;;;;;3.38;0.80;;;;;;;22.26;68.14;98470.97;15286953;19;20018;-42
2023/06/01 11:01:22;;;;;;;4.25;1.10;;;;;;;22.33;65.43;98477.19;15293730;19;20014;-43
2023/06/01 11:06:48;;;;;;;2.15;0.95;;;;;;;22.29;67.90;98467.75;15284527;19;20024;-42
2023/06/01 11:12:16;;;;;;;3.17;0.93;;;;;;;22.53;66.91;98456.81;15289007;19;20031;-41
2023/06/01 11:17:41;;;;;;;2.45;0.90;;;;;;;22.68;63.22;98450.88;15294390;19;20017;-42
2023/06/01 11:23:07;;;;;;;6.57;1.02;;;;;;;22.72;58.79;98450.13;15288815;19;20085;-42
2023/06/01 11:28:35;;;;;;;2.63;1.02;;;;;;;22.51;59.12;98448.00;15285720;19;20014;-43
2023/06/01 11:34:01;;;;;;;2.53;0.85;;;;;;;22.18;56.98;98444.72;15288784;19;20015;-41
2023/06/01 11:39:30;;;;;;;3.58;0.80;;;;;;;22.15;61.84;98443.28;15287468;19;20027;-42
2023/06/01 11:45:02;;;;;;;4.78;0.90;;;;;;;21.94;59.71;98439.19;15291461;19;20054;-44
2023/06/01 11:50:31;;;;;;;1.73;0.70;;;;;;;22.05;59.67;98433.97;15289239;19;20082;-43
2023/06/01 11:55:57;;;;;;;1.52;0.90;;;;;;;22.24;57.79;98426.47;15292247;19;20022;-42
2023/06/01 12:01:26;;;;;;;3.70;1.10;;;;;;;22.45;57.61;98419.59;15289899;19;20070;-80
2023/06/01 12:06:59;;;;;;;1.85;0.90;;;;;;;22.70;56.03;98419.34;15350072;19;20011;-81
2023/06/01 12:12:24;;;;;;;2.28;1.00;;;;;;;22.93;60.32;98421.19;15366808;19;20010;-81
2023/06/01 12:17:55;;;;;;;2.13;1.00;;;;;;;22.85;59.12;98409.75;15361805;19;20013;-80
2023/06/01 12:23:25;;;;;;;2.58;1.10;;;;;;;22.83;61.55;98407.25;15361537;19;20006;-80
2023/06/01 12:28:52;;;;;;;1.92;0.93;;;;;;;23.08;62.93;98389.63;15325406;19;20025;-81
2023/06/01 12:34:29;;;;;;;2.95;0.90;;;;;;;23.31;60.43;98390.63;15317903;19;20014;-80
2023/06/01 12:40:00;;;;;;;4.85;1.02;;;;;;;23.35;57.31;98392.66;15317244;19;20595;-82
2023/06/01 12:45:26;;;;;;;5.55;1.00;;;;;;;23.61;60.37;98384.06;15321740;19;20022;-81
2023/06/01 12:50:55;;;;;;;3.40;1.10;;;;;;;23.91;59.54;98378.25;15319421;19;20066;-82
2023/06/01 12:56:37;;;;;;;2.50;0.98;;;;;;;24.12;55.66;98378.63;15325209;19;20018;-80
2023/06/01 13:02:07;;;;;;;2.85;1.02;;;;;;;24.20;48.59;98378.19;15306738;19;20037;-81
2023/06/01 13:07:40;;;;;;;3.10;1.30;;;;;;;24.33;47.58;98385.28;15307560;19;20079;-81
2023/06/01 13:13:07;;;;;;;2.45;1.00;;;;;;;24.37;43.62;98366.31;15308779;19;20027;-80
2023/06/01 13:18:35;;;;;;;2.20;1.30;;;;;;;24.49;41.76;98367.06;15307598;19;20089;-81
2023/06/01 13:24:04;;;;;;;1.30;1.20;;;;;;;24.67;36.25;98367.81;15314824;19;20102;-80
2023/06/01 13:29:28;;;;;;;1.50;1.40;;;;;;;24.53;33.42;98390.22;15316793;19;20379;-80
2023/06/01 13:35:08;;;;;;;1.60;1.50;;;;;;;24.26;34.24;98376.34;15319197;19;20623;-80
2023/06/01 13:40:37;;;;;;;1.52;1.42;;;;;;;23.90;32.16;98361.97;15324714;19;20019;-80
2023/06/01 13:46:07;;;;;;;2.25;1.40;;;;;;;23.70;34.09;98366.06;15315468;19;20471;-81
2023/06/01 13:51:33;;;;;;;3.15;1.40;;;;;;;23.88;36.13;98356.75;15320575;19;20020;-81
2023/06/01 13:57:01;;;;;;;1.40;1.20;;;;;;;24.44;37.21;98353.19;15318037;19;20035;-80
2023/06/01 14:02:34;;;;;;;1.55;1.20;;;;;;;24.68;37.51;98344.72;15296797;19;20019;-80
2023/06/01 14:07:59;;;;;;;4.68;1.20;;;;;;;25.04;41.26;98339.66;15285924;19;20011;-81
2023/06/01 14:13:27;;;;;;;2.55;1.20;;;;;;;25.34;41.74;98335.59;15296171;19;20045;-81
2023/06/01 14:18:52;;;;;;;1.20;1.02;;;;;;;25.31;41.79;98333.34;15296044;19;20840;-80
2023/06/01 14:24:16;;;;;;;2.13;1.20;;;;;;;25.41;40.50;98327.97;15289183;19;20011;-80
2023/06/01 14:29:44;;;;;;;1.98;1.27;;;;;;;25.76;39.71;98310.06;15293176;19;20034;-81
2023/06/01 14:35:09;;;;;;;2.85;1.20;;;;;;;25.67;41.26;98311.66;15294812;19;20011;-80
2023/06/01 14:40:35;;;;;;;3.60;1.30;;;;;;;25.65;39.29;98322.09;15294004;19;20018;-80
2023/06/01 14:46:03;;;;;;;2.55;1.33;;;;;;;25.91;37.96;98311.28;15291795;19;20022;-80
2023/06/01 14:51:41;;;;;;;1.77;1.25;;;;;;;25.91;37.19;98298.28;15292520;19;20010;-81
2023/06/01 14:57:07;;;;;;;1.23;1.13;;;;;;;26.13;38.58;98303.72;15303609;19;20003;-82
2023/06/01 15:02:41;;;;;;;1.23;1.13;;;;;;;26.19;36.66;98299.06;15298435;19;20022;-81
2023/06/01 15:08:09;;;;;;;1.70;1.10;;;;;;;26.23;34.17;98302.13;15297270;19;20122;-82
2023/06/01 15:13:43;;;;;;;3.33;1.17;;;;;;;26.50;35.44;98281.84;15308663;19;20015;-81
2023/06/01 15:19:11;;;;;;;1.15;1.00;;;;;;;26.40;36.58;98288.94;15290623;19;20373;-81
2023/06/01 15:24:37;;;;;;;2.43;1.20;;;;;;;26.51;35.99;98281.56;14802609;19;9999647;-81
2023/06/01 15:30:02;;;;;;;1.55;1.23;;;;;;;26.77;38.07;98285.25;15307732;19;20021;-81
2023/06/01 15:35:30;;;;;;;2.45;1.30;;;;;;;26.93;42.13;98285.31;15312696;19;20022;-81
2023/06/01 15:40:55;;;;;;;4.82;1.50;;;;;;;26.11;51.39;98292.13;15311140;19;20369;-82
2023/06/01 15:46:20;;;;;;;3.33;1.30;;;;;;;25.88;52.70;98287.78;15309827;19;20588;-81
2023/06/01 15:51:47;;;;;;;2.95;1.50;;;;;;;25.13;56.33;98280.22;15315727;19;20047;-80
2023/06/01 15:57:12;;;;;;;2.53;1.60;;;;;;;25.32;55.48;98277.94;15317829;19;20006;-81
2023/06/01 16:02:43;;;;;;;3.42;1.50;;;;;;;25.82;55.20;98269.53;15325594;19;20022;-80
2023/06/01 16:08:12;;;;;;;6.00;1.90;;;;;;;25.48;55.31;98278.91;15327441;19;20715;-81
2023/06/01 16:13:40;;;;;;;3.10;1.77;;;;;;;25.64;55.27;98262.50;15328526;19;20003;-80
2023/06/01 16:19:06;;;;;;;5.05;1.90;;;;;;;25.64;55.47;98277.13;15329274;19;20015;-79
2023/06/01 16:24:35;;;;;;;8.13;2.10;;;;;;;25.59;55.05;98273.47;15321630;19;20022;-79
2023/06/01 16:30:12;;;;;;;7.20;2.05;;;;;;;25.64;54.01;98266.09;15345328;19;20002;-80
2023/06/01 16:35:42;;;;;;;4.38;2.20;;;;;;;25.13;55.30;98271.13;15346387;19;20023;-78
2023/06/01 16:41:24;;;;;;;3.13;1.77;;;;;;;25.16;55.54;98267.88;15299572;19;20031;-77
2023/06/01 16:46:52;;;;;;;5.45;1.80;;;;;;;24.99;55.07;98263.28;15296354;19;20413;-79
2023/06/01 16:52:21;;;;;;;4.18;1.65;;;;;;;24.61;56.67;98260.34;15294372;19;20015;-78
2023/06/01 16:57:53;;;;;;;7.25;1.90;;;;;;;24.53;57.02;98252.53;15292519;19;20054;-79
2023/06/01 17:03:18;;;;;;;4.22;1.70;;;;;;;24.31;57.07;98261.63;15299150;19;20078;-78
2023/06/01 17:08:47;;;;;;;6.00;1.50;;;;;;;24.08;57.59;98261.84;15285491;19;20053;-83
2023/06/01 17:14:14;;;;;;;5.95;1.55;;;;;;;23.62;60.11;98270.22;15302154;19;20090;-81
2023/06/01 17:19:39;;;;;;;2.95;1.27;;;;;;;22.99;62.26;98268.28;15296045;19;20026;-82
2023/06/01 17:25:07;;;;;;;3.38;1.60;;;;;;;23.00;63.75;98272.69;15297410;19;20007;-83
2023/06/01 17:30:35;;;;;;;3.13;1.45;;;;;;;23.01;64.42;98268.88;15300481;19;20018;-79
2023/06/01 17:35:59;;;;;;;3.92;1.30;;;;;;;22.85;67.14;98275.19;15271001;19;20420;-81
2023/06/01 17:41:28;;;;;;;5.03;1.30;;;;;;;22.34;69.12;98285.91;15317908;19;20017;-79
2023/06/01 17:46:56;;;;;;;4.82;1.30;;;;;;;22.24;71.14;98278.28;15352564;19;20002;-79
2023/06/01 17:52:21;;;;;;;3.17;1.20;;;;;;;21.94;71.21;98279.25;15294970;19;20890;-80
2023/06/01 17:57:47;;;;;;;4.95;1.23;;;;;;;21.82;73.69;98280.09;15290508;19;20010;-81
2023/06/01 18:03:22;;;;;;;4.43;1.10;;;;;;;21.47;79.85;98288.25;15288935;19;20014;-82
2023/06/01 18:08:46;;;;;;;3.92;1.08;;;;;;;21.39;79.89;98289.44;15285678;19;20018;-86
2023/06/01 18:14:12;;;;;;;2.35;1.00;;;;;;;21.15;80.49;98303.06;15279319;19;20013;-81
2023/06/01 18:19:39;;;;;;;2.08;0.80;;;;;;;20.81;88.72;98304.63;15292892;19;20497;-78
2023/06/01 18:25:04;;;;;;;1.50;0.82;;;;;;;20.62;88.95;98302.72;15283816;19;20045;-76
2023/06/01 18:30:28;;;;;;;3.13;0.90;;;;;;;20.39;92.90;98313.50;15289808;19;20642;-77
2023/06/01 18:41:19;;;;;;;1.92;0.80;;;;;;;19.91;97.67;98324.09;15299457;19;20006;-79
2023/06/01 18:46:46;;;;;;;3.13;0.80;;;;;;;19.50;100.00;98329.03;15303846;19;20018;-78
2023/06/01 18:52:16;;;;;;;2.30;0.90;;;;;;;19.07;100.00;98336.03;15324045;19;20007;-76
2023/06/01 18:57:42;;;;;;;2.13;1.13;;;;;;;18.64;100.00;98333.88;15319969;19;20022;-75
2023/06/01 19:03:07;;;;;;;4.28;1.10;;;;;;;18.22;100.00;98338.81;15317166;19;20399;-75
2023/06/01 19:08:35;;;;;;;1.38;1.00;;;;;;;17.85;100.00;98344.72;15302801;19;20070;-76
2023/06/01 19:14:00;;;;;;;1.77;1.10;;;;;;;17.50;100.00;98348.47;15311544;19;20033;-78
2023/06/01 19:19:27;;;;;;;3.63;1.10;;;;;;;17.24;100.00;98358.28;15309015;19;20003;-77
2023/06/01 19:24:55;;;;;;;3.90;1.20;;;;;;;16.96;100.00;98363.03;15305264;19;20423;-76
2023/06/01 19:30:20;;;;;;;1.50;1.25;;;;;;;16.70;100.00;98370.81;15303958;19;20033;-76
2023/06/01 19:35:45;;;;;;;3.85;1.40;;;;;;;16.27;100.00;98380.03;15310162;19;20027;-77
2023/06/01 19:41:13;;;;;;;2.58;1.30;;;;;;;15.77;100.00;98379.19;15305121;19;20014;-77
2023/06/01 19:46:38;;;;;;;3.63;1.25;;;;;;;15.45;100.00;98387.69;15295943;19;20010;-76
2023/06/01 19:52:08;;;;;;;3.72;1.30;;;;;;;15.20;100.00;98398.09;15291523;19;20369;-76
2023/06/01 19:57:42;;;;;;;3.10;1.33;;;;;;;14.90;100.00;98398.13;15300930;19;20014;-77
2023/06/01 20:03:11;;;;;;;2.95;1.40;;;;;;;14.57;100.00;98403.94;15297776;19;20014;-76
2023/06/01 20:08:36;;;;;;;1.95;1.52;;;;;;;14.32;100.00;98409.63;15300322;19;20018;-77
2023/06/01 20:14:03;;;;;;;3.42;1.60;;;;;;;13.97;100.00;98410.16;15298035;19;20026;-76
2023/06/01 20:19:29;;;;;;;1.92;1.40;;;;;;;13.66;100.00;98402.13;15297005;19;20027;-75
2023/06/01 20:24:53;;;;;;;3.75;1.60;;;;;;;13.48;100.00;98421.38;15299984;19;20029;-76
2023/06/01 20:30:55;;;;;;;3.67;1.67;;;;;;;13.24;100.00;98418.63;15309223;19;20029;-78
2023/06/01 20:36:27;;;;;;;4.53;1.90;;;;;;;13.05;100.00;98421.78;15343454;19;20006;-78
2023/06/01 20:41:51;;;;;;;1.98;1.67;;;;;;;12.91;100.00;98421.50;15319821;19;20341;-77
2023/06/01 20:47:20;;;;;;;4.07;1.98;;;;;;;12.81;100.00;98426.28;15299621;19;20098;-77
2023/06/01 20:52:46;;;;;;;2.33;1.60;;;;;;;12.70;100.00;98424.81;15295938;19;20010;-75
2023/06/01 20:58:11;;;;;;;4.18;1.83;;;;;;;12.64;100.00;98425.50;15290400;19;20356;-75
2023/06/01 21:03:39;;;;;;;2.90;1.80;;;;;;;12.58;100.00;98426.22;15295108;19;20029;-75
2023/06/01 21:09:06;;;;;;;4.40;2.00;;;;;;;12.56;100.00;98429.09;15291408;19;20030;-77
2023/06/01 21:14:31;;;;;;;2.45;1.60;;;;;;;12.47;100.00;98438.25;15292499;19;20023;-76
2023/06/01 21:19:59;;;;;;;5.25;1.70;;;;;;;12.43;100.00;98450.41;15294175;19;20028;-74
2023/06/01 21:25:25;;;;;;;2.78;1.70;;;;;;;12.41;100.00;98452.41;15297745;19;20011;-77
2023/06/01 21:30:50;;;;;;;4.05;1.88;;;;;;;12.33;100.00;98456.84;15295566;19;20014;-78
2023/06/01 21:36:19;;;;;;;4.07;2.10;;;;;;;12.17;100.00;98459.59;15300088;19;20097;-78
2023/06/01 21:41:44;;;;;;;3.70;2.22;;;;;;;12.05;100.00;98456.38;15294283;19;20712;-76
2023/06/01 21:47:14;;;;;;;3.15;2.05;;;;;;;11.90;100.00;98458.03;15296839;19;20489;-74
2023/06/01 21:52:42;;;;;;;4.37;2.10;;;;;;;11.86;100.00;98452.97;15286696;19;20020;-75
2023/06/01 21:58:08;;;;;;;4.40;2.00;;;;;;;11.86;100.00;98471.88;15286995;19;20050;-78
2023/06/01 22:03:34;;;;;;;3.58;2.17;;;;;;;11.85;100.00;98474.72;15292109;19;20017;-75
2023/06/01 22:09:02;;;;;;;4.63;2.50;;;;;;;11.84;100.00;98473.03;15285368;19;20098;-75
2023/06/01 22:14:27;;;;;;;4.00;1.98;;;;;;;11.86;100.00;98471.03;15282305;19;20373;-76
2023/06/01 22:19:52;;;;;;;2.65;2.15;;;;;;;11.86;100.00;98465.63;15296080;19;20010;-77
2023/06/01 22:25:19;;;;;;;4.25;2.10;;;;;;;11.88;100.00;98469.00;15286189;19;20017;-76
2023/06/01 22:30:45;;;;;;;5.72;2.00;;;;;;;11.85;100.00;98469.31;15284875;19;20496;-77
2023/06/01 22:36:11;;;;;;;4.60;2.17;;;;;;;11.84;100.00;98481.13;15288670;19;20106;-78
2023/06/01 22:41:38;;;;;;;4.90;2.17;;;;;;;11.76;100.00;98481.13;15300151;19;20006;-77
2023/06/01 22:47:03;;;;;;;4.43;2.40;;;;;;;11.71;100.00;98479.78;15286719;19;20003;-79
2023/06/01 22:52:29;;;;;;;2.85;1.88;;;;;;;11.67;100.00;98478.44;15293467;19;20011;-78
2023/06/01 22:57:56;;;;;;;2.72;2.10;;;;;;;11.64;100.00;98478.78;15294818;19;20037;-78
2023/06/01 23:03:28;;;;;;;4.45;2.38;;;;;;;11.56;100.00;98487.69;15295846;19;20014;-74
2023/06/01 23:08:55;;;;;;;5.00;2.30;;;;;;;11.54;100.00;98486.19;15344399;19;20006;-74
2023/06/01 23:14:25;;;;;;;3.55;2.08;;;;;;;11.52;100.00;98488.19;15295150;19;20018;-75
2023/06/01 23:19:51;;;;;;;5.78;2.40;;;;;;;11.44;100.00;98490.88;15292819;19;20074;-74
2023/06/01 23:25:17;;;;;;;3.80;2.20;;;;;;;11.37;100.00;98494.22;15293006;19;20028;-76
2023/06/01 23:30:45;;;;;;;4.07;2.30;;;;;;;11.32;100.00;98499.28;15295817;19;20037;-77
2023/06/01 23:36:11;;;;;;;6.03;2.45;;;;;;;11.27;100.00;98492.69;15285415;19;20018;-75
2023/06/01 23:41:38;;;;;;;3.53;2.15;;;;;;;11.23;100.00;98492.19;15296428;19;20021;-77
2023/06/01 23:47:06;;;;;;;3.60;2.20;;;;;;;11.17;100.00;98488.25;15289269;19;20023;-77
2023/06/01 23:52:32;;;;;;;5.97;2.25;;;;;;;11.10;100.00;98482.72;15307772;19;20018;-75
2023/06/01 23:57:59;;;;;;;5.25;2.65;;;;;;;11.03;100.00;98481.66;15305548;19;20025;-76
